createdAt,value
2018-11-14T00:01:41.854Z,78.53
2018-11-14T00:04:10.071Z,78.86
2018-11-14T00:06:38.036Z,79.27
2018-11-14T00:09:20.957Z,79.53
2018-11-14T00:11:49.364Z,79.31
2018-11-14T00:14:17.424Z,79.18
2018-11-14T00:16:45.457Z,78.92
2018-11-14T00:19:13.565Z,78.85
2018-11-14T00:21:41.678Z,78.58
2018-11-14T00:24:09.963Z,78.48
2018-11-14T00:26:38.097Z,78.50
2018-11-14T00:29:06.131Z,78.68
2018-11-14T00:31:34.133Z,78.68
2018-11-14T00:34:02.374Z,78.51
2018-11-14T00:36:30.211Z,78.76
2018-11-14T00:38:58.230Z,78.50
2018-11-14T00:41:26.230Z,78.81
2018-11-14T00:43:54.317Z,78.42
2018-11-14T00:46:22.291Z,78.10
2018-11-14T00:48:50.384Z,77.94
2018-11-14T00:51:18.458Z,77.68
2018-11-14T00:53:46.426Z,77.68
2018-11-14T00:56:14.433Z,77.74
2018-11-14T00:58:42.388Z,77.69
2018-11-14T01:01:10.379Z,77.77
2018-11-14T01:03:38.350Z,78.05
2018-11-14T01:06:06.319Z,78.11
2018-11-14T01:08:34.295Z,78.08
2018-11-14T01:11:02.961Z,77.98
2018-11-14T01:13:30.947Z,78.25
2018-11-14T01:15:58.935Z,78.01
2018-11-14T01:18:27.537Z,78.06
2018-11-14T01:20:55.473Z,78.35
2018-11-14T01:23:23.472Z,79.10
2018-11-14T01:25:51.524Z,80.31
2018-11-14T01:28:19.544Z,81.23
2018-11-14T01:33:48.766Z,82.75
2018-11-14T01:36:16.933Z,82.73
2018-11-14T01:38:45.106Z,82.62
2018-11-14T01:41:13.218Z,82.99
2018-11-14T01:43:41.328Z,82.69
2018-11-14T01:46:09.416Z,82.57
2018-11-14T01:48:37.558Z,82.23
2018-11-14T01:51:07.466Z,82.52
2018-11-14T01:53:36.413Z,82.68
2018-11-14T01:56:05.979Z,82.73
2018-11-14T01:58:34.158Z,82.42
2018-11-14T02:01:02.307Z,82.41
2018-11-14T02:03:30.459Z,81.89
2018-11-14T02:05:58.684Z,82.54
2018-11-14T02:08:26.843Z,82.19
2018-11-14T02:10:55.057Z,82.86
2018-11-14T02:13:23.215Z,82.77
2018-11-14T02:15:51.302Z,82.80
2018-11-14T02:18:19.406Z,82.62
2018-11-14T02:20:47.605Z,82.78
2018-11-14T02:23:15.692Z,83.19
2018-11-14T02:25:43.737Z,82.67
2018-11-14T02:28:11.840Z,82.71
2018-11-14T02:30:39.914Z,82.39
2018-11-14T02:33:08.090Z,82.74
2018-11-14T02:35:36.287Z,82.67
2018-11-14T02:38:04.366Z,82.79
2018-11-14T02:40:33.122Z,82.76
2018-11-14T02:43:01.222Z,82.62
2018-11-14T02:45:29.287Z,82.80
2018-11-14T02:47:57.388Z,82.28
2018-11-14T02:50:25.618Z,82.23
2018-11-14T02:52:53.669Z,82.10
2018-11-14T02:55:21.730Z,81.71
2018-11-14T02:57:49.982Z,81.61
2018-11-14T03:00:19.490Z,81.36
2018-11-14T03:02:47.711Z,81.72
2018-11-14T03:05:15.881Z,82.12
2018-11-14T03:07:44.076Z,81.64
2018-11-14T03:10:15.346Z,81.30
2018-11-14T03:12:43.511Z,81.75
2018-11-14T03:15:14.517Z,81.29
2018-11-14T03:17:42.744Z,82.09
2018-11-14T03:20:15.766Z,82.14
2018-11-14T03:22:44.127Z,81.51
2018-11-14T03:25:13.193Z,81.67
2018-11-14T03:27:42.111Z,81.56
2018-11-14T03:30:12.778Z,81.63
2018-11-14T03:32:41.781Z,81.38
2018-11-14T03:35:10.845Z,81.07
2018-11-14T03:37:39.145Z,81.23
2018-11-14T03:40:09.154Z,81.22
2018-11-14T03:42:37.569Z,80.71
2018-11-14T03:45:06.542Z,80.62
2018-11-14T03:47:34.697Z,80.25
2018-11-14T03:50:02.991Z,80.09
2018-11-14T03:52:31.112Z,80.06
2018-11-14T03:54:59.292Z,79.44
2018-11-14T03:57:27.760Z,79.59
2018-11-14T03:59:56.007Z,79.65
2018-11-14T04:02:24.171Z,80.01
2018-11-14T04:04:52.274Z,79.81
2018-11-14T04:07:20.422Z,79.68
2018-11-14T04:09:48.594Z,79.63
2018-11-14T04:12:16.763Z,79.44
2018-11-14T04:14:44.905Z,79.16
2018-11-14T04:17:12.980Z,79.24
2018-11-14T04:19:41.132Z,79.36
2018-11-14T04:22:10.099Z,79.10
2018-11-14T04:24:38.237Z,79.12
2018-11-14T04:27:06.358Z,79.47
2018-11-14T04:29:34.461Z,79.39
2018-11-14T04:32:02.647Z,79.21
2018-11-14T04:34:30.727Z,79.55
2018-11-14T04:36:58.896Z,79.68
2018-11-14T04:39:26.985Z,79.54
2018-11-14T04:41:55.131Z,79.23
2018-11-14T04:44:23.213Z,79.51
2018-11-14T04:46:52.308Z,79.62
2018-11-14T04:49:20.422Z,79.31
2018-11-14T04:51:48.572Z,79.59
2018-11-14T04:54:17.541Z,79.61
2018-11-14T04:56:45.700Z,79.87
2018-11-14T04:59:13.858Z,80.19
2018-11-14T05:01:41.916Z,80.39
2018-11-14T05:04:10.002Z,80.55
2018-11-14T05:06:38.095Z,80.46
2018-11-14T05:09:08.486Z,80.48
2018-11-14T05:11:36.588Z,81.04
2018-11-14T05:14:05.191Z,81.32
2018-11-14T05:16:33.368Z,81.21
2018-11-14T05:19:01.500Z,81.40
2018-11-14T05:21:29.648Z,81.31
2018-11-14T05:23:57.785Z,81.26
2018-11-14T05:26:26.257Z,81.24
2018-11-14T05:28:54.326Z,80.92
2018-11-14T05:31:22.490Z,81.27
2018-11-14T05:33:50.746Z,81.11
2018-11-14T05:36:19.032Z,81.30
2018-11-14T05:38:47.190Z,81.09
2018-11-14T05:41:15.416Z,80.78
2018-11-14T05:43:43.719Z,80.61
2018-11-14T05:46:11.830Z,80.83
2018-11-14T05:48:40.011Z,81.14
2018-11-14T05:51:08.113Z,81.16
2018-11-14T05:53:36.348Z,80.81
2018-11-14T05:56:04.675Z,81.31
2018-11-14T05:58:32.828Z,81.19
2018-11-14T06:01:00.923Z,81.61
2018-11-14T06:03:29.012Z,81.11
2018-11-14T06:05:57.124Z,80.87
2018-11-14T06:08:25.275Z,81.09
2018-11-14T06:10:53.442Z,80.95
2018-11-14T06:13:21.531Z,80.77
2018-11-14T06:15:49.722Z,80.98
2018-11-14T06:18:17.923Z,80.70
2018-11-14T06:20:46.039Z,80.76
2018-11-14T06:23:14.182Z,80.54
2018-11-14T06:25:42.326Z,80.44
2018-11-14T06:28:11.124Z,80.13
2018-11-14T06:30:40.472Z,79.59
2018-11-14T06:33:09.573Z,79.58
2018-11-14T06:35:37.698Z,79.58
2018-11-14T06:38:06.043Z,79.15
2018-11-14T06:40:34.257Z,79.06
2018-11-14T06:43:02.434Z,79.28
2018-11-14T06:45:31.583Z,78.91
2018-11-14T06:48:00.601Z,79.04
2018-11-14T06:50:28.803Z,79.46
2018-11-14T06:52:58.463Z,78.98
2018-11-14T06:55:26.610Z,78.77
2018-11-14T06:57:54.796Z,79.28
2018-11-14T07:00:30.413Z,79.20
2018-11-14T07:02:59.355Z,79.21
2018-11-14T07:05:27.569Z,78.98
2018-11-14T07:07:55.696Z,78.72
2018-11-14T07:10:25.089Z,78.99
2018-11-14T07:12:53.502Z,78.89
2018-11-14T07:15:23.041Z,79.20
2018-11-14T07:17:52.137Z,79.21
2018-11-14T07:20:22.925Z,79.19
2018-11-14T07:22:51.095Z,79.15
2018-11-14T07:25:19.325Z,79.19
2018-11-14T07:27:47.484Z,79.36
2018-11-14T07:30:17.835Z,79.55
2018-11-14T07:32:47.724Z,79.63
2018-11-14T07:35:16.955Z,79.72
2018-11-14T07:37:49.970Z,79.43
2018-11-14T07:40:18.837Z,79.70
2018-11-14T07:42:48.581Z,79.79
2018-11-14T07:45:16.861Z,79.71
2018-11-14T07:47:45.034Z,79.42
2018-11-14T07:50:14.422Z,79.19
2018-11-14T07:52:43.453Z,79.29
2018-11-14T07:55:12.224Z,79.34
2018-11-14T07:57:40.444Z,79.28
2018-11-14T08:00:13.000Z,79.45
2018-11-14T08:02:41.855Z,79.40
2018-11-14T08:05:09.960Z,79.27
2018-11-14T08:07:38.094Z,79.24
2018-11-14T08:10:08.417Z,78.96
2018-11-14T08:12:37.419Z,78.82
2018-11-14T08:15:07.100Z,78.97
2018-11-14T08:17:36.796Z,79.16
2018-11-14T08:20:09.526Z,79.24
2018-11-14T08:22:37.761Z,79.43
2018-11-14T08:25:06.345Z,79.36
2018-11-14T08:27:34.396Z,79.10
2018-11-14T08:30:02.528Z,78.71
2018-11-14T08:32:31.417Z,78.50
2018-11-14T08:35:17.756Z,78.42
2018-11-14T08:37:48.006Z,78.19
2018-11-14T08:40:17.342Z,78.13
2018-11-14T08:42:49.321Z,78.49
2018-11-14T08:45:19.579Z,78.40
2018-11-14T08:47:58.563Z,78.50
2018-11-14T08:50:27.975Z,78.45
2018-11-14T08:52:57.693Z,78.17
2018-11-14T08:55:26.010Z,78.23
2018-11-14T08:57:59.689Z,78.67
2018-11-14T09:00:29.363Z,78.71
2018-11-14T09:02:58.399Z,79.06
2018-11-14T09:05:59.134Z,77.97
2018-11-14T09:08:57.495Z,78.07
2018-11-14T09:11:38.455Z,77.50
2018-11-14T09:14:26.478Z,77.16
2018-11-14T09:17:18.486Z,77.00
2018-11-14T09:24:59.703Z,77.15
2018-11-14T09:27:29.032Z,76.99
2018-11-14T09:30:28.223Z,77.17
2018-11-14T09:33:19.050Z,76.79
2018-11-14T09:36:19.983Z,76.95
2018-11-14T09:38:49.922Z,76.90
2018-11-14T09:41:18.151Z,76.54
2018-11-14T09:43:46.305Z,76.57
2018-11-14T09:46:14.474Z,76.60
2018-11-14T09:48:42.712Z,76.55
2018-11-14T09:51:10.916Z,76.33
2018-11-14T09:53:39.138Z,76.43
2018-11-14T09:56:07.343Z,76.06
2018-11-14T09:58:35.503Z,76.52
2018-11-14T10:01:03.891Z,76.34
2018-11-14T10:03:32.064Z,76.04
2018-11-14T10:06:00.350Z,76.54
2018-11-14T10:08:28.541Z,76.04
2018-11-14T10:10:56.871Z,75.99
2018-11-14T10:13:40.432Z,76.00
2018-11-14T10:16:08.633Z,75.88
2018-11-14T10:18:39.198Z,75.93
2018-11-14T10:21:11.110Z,75.84
2018-11-14T10:23:40.540Z,76.09
2018-11-14T10:26:09.930Z,75.91
2018-11-14T10:28:46.434Z,75.70
2018-11-14T10:31:14.867Z,75.87
2018-11-14T10:33:43.228Z,75.48
2018-11-14T10:36:11.978Z,75.72
2018-11-14T10:38:40.901Z,75.62
2018-11-14T10:41:09.684Z,75.69
2018-11-14T10:43:38.016Z,75.88
2018-11-14T10:46:06.316Z,76.13
2018-11-14T10:48:34.442Z,75.99
2018-11-14T10:51:02.687Z,76.10
2018-11-14T10:53:30.830Z,75.97
2018-11-14T10:55:59.015Z,75.68
2018-11-14T10:58:27.335Z,75.41
2018-11-14T11:01:01.034Z,75.72
2018-11-14T11:03:39.818Z,75.80
2018-11-14T11:06:13.957Z,75.51
2018-11-14T11:08:47.826Z,75.96
2018-11-14T11:11:18.519Z,75.55
2018-11-14T11:14:20.324Z,75.72
2018-11-14T11:16:54.031Z,75.41
2018-11-14T11:19:27.550Z,74.76
2018-11-14T11:21:55.763Z,75.51
2018-11-14T11:24:24.050Z,75.61
2018-11-14T11:26:52.142Z,75.20
2018-11-14T11:29:20.261Z,74.89
2018-11-14T11:31:48.490Z,74.48
2018-11-14T11:34:17.670Z,74.16
2018-11-14T11:36:45.815Z,74.54
2018-11-14T11:39:20.909Z,74.03
2018-11-14T11:41:49.438Z,74.16
2018-11-14T11:44:17.579Z,73.84
2018-11-14T11:46:45.753Z,73.30
2018-11-14T11:49:13.975Z,73.29
2018-11-14T11:51:42.081Z,73.49
2018-11-14T11:57:30.870Z,74.06
2018-11-14T12:00:04.364Z,73.45
2018-11-14T12:02:36.590Z,73.23
2018-11-14T12:05:06.116Z,73.23
2018-11-14T12:07:34.315Z,72.81
2018-11-14T12:10:02.558Z,72.41
2018-11-14T12:12:30.709Z,72.95
2018-11-14T12:14:58.908Z,72.69
2018-11-14T12:17:27.236Z,72.57
2018-11-14T12:19:55.302Z,72.49
2018-11-14T12:22:23.500Z,72.10
2018-11-14T12:24:51.597Z,71.98
2018-11-14T12:27:19.785Z,72.09
2018-11-14T12:29:47.900Z,72.50
2018-11-14T12:32:16.342Z,71.92
2018-11-14T12:34:44.529Z,71.23
2018-11-14T12:37:12.759Z,71.13
2018-11-14T12:39:40.864Z,71.34
2018-11-14T12:42:09.016Z,71.12
2018-11-14T12:44:37.120Z,70.81
2018-11-14T12:47:05.348Z,71.11
2018-11-14T12:49:33.476Z,70.70
2018-11-14T12:52:01.608Z,70.83
2018-11-14T12:54:29.714Z,70.82
2018-11-14T12:56:57.846Z,70.32
2018-11-14T12:59:26.002Z,70.47
2018-11-14T13:01:54.026Z,70.24
2018-11-14T13:04:22.185Z,70.55
2018-11-14T13:06:50.819Z,70.59
2018-11-14T13:09:18.921Z,70.60
2018-11-14T13:11:46.985Z,70.38
2018-11-14T13:14:15.079Z,70.45
2018-11-14T13:16:43.204Z,70.45
2018-11-14T13:19:11.272Z,70.67
2018-11-14T13:21:39.435Z,70.45
2018-11-14T13:24:07.639Z,70.65
2018-11-14T13:26:35.710Z,70.60
2018-11-14T13:29:03.833Z,70.43
2018-11-14T13:31:31.979Z,71.33
2018-11-14T13:34:00.081Z,71.35
2018-11-14T13:36:28.184Z,71.49
2018-11-14T13:38:56.313Z,71.73
2018-11-14T13:41:24.356Z,71.66
2018-11-14T13:43:52.398Z,71.84
2018-11-14T13:46:20.530Z,71.77
2018-11-14T13:48:48.704Z,71.75
2018-11-14T13:51:16.913Z,71.81
2018-11-14T13:53:44.869Z,71.60
2018-11-14T13:56:12.929Z,71.42
2018-11-14T13:58:40.982Z,71.66
2018-11-14T14:01:09.145Z,71.67
2018-11-14T14:03:37.168Z,71.60
2018-11-14T14:06:05.393Z,71.43
2018-11-14T14:08:33.514Z,71.73
2018-11-14T14:11:01.620Z,71.73
2018-11-14T14:13:29.674Z,72.24
2018-11-14T14:15:57.768Z,72.07
2018-11-14T14:18:26.468Z,71.87
2018-11-14T14:20:54.494Z,71.90
2018-11-14T14:23:22.614Z,72.02
2018-11-14T14:25:51.629Z,71.82
2018-11-14T14:28:19.670Z,71.86
2018-11-14T14:30:47.801Z,72.11
2018-11-14T14:33:15.921Z,71.98
2018-11-14T14:35:44.063Z,71.58
2018-11-14T14:38:12.181Z,71.52
2018-11-14T14:40:40.227Z,71.75
2018-11-14T14:43:08.260Z,72.03
2018-11-14T14:45:36.350Z,71.89
2018-11-14T14:48:04.505Z,72.03
2018-11-14T14:50:32.834Z,71.68
2018-11-14T14:53:00.887Z,71.91
2018-11-14T14:55:29.000Z,72.18
2018-11-14T14:57:57.052Z,71.82
2018-11-14T15:00:26.554Z,71.94
2018-11-14T15:02:54.702Z,72.11
2018-11-14T15:05:22.765Z,72.32
2018-11-14T15:07:50.861Z,72.15
2018-11-14T15:10:20.337Z,72.04
2018-11-14T15:12:48.440Z,72.03
2018-11-14T15:15:17.060Z,72.00
2018-11-14T15:17:45.239Z,72.17
2018-11-14T15:20:16.513Z,72.07
2018-11-14T15:22:44.738Z,72.04
2018-11-14T15:25:14.826Z,72.24
2018-11-14T15:27:43.410Z,72.12
2018-11-14T15:30:15.035Z,72.20
2018-11-14T15:32:43.210Z,72.25
2018-11-14T15:35:12.015Z,72.10
2018-11-14T15:37:40.293Z,71.85
2018-11-14T15:40:10.720Z,72.04
2018-11-14T15:42:39.011Z,72.39
2018-11-14T15:45:09.128Z,72.63
2018-11-14T15:47:37.897Z,72.58
2018-11-14T15:50:08.610Z,72.80
2018-11-14T15:52:36.676Z,72.62
2018-11-14T15:55:05.871Z,72.74
2018-11-14T15:57:34.065Z,72.94
2018-11-14T16:00:02.204Z,72.53
2018-11-14T16:02:30.306Z,72.56
2018-11-14T16:04:58.469Z,72.78
2018-11-14T16:07:26.517Z,72.38
2018-11-14T16:09:54.552Z,72.38
2018-11-14T16:12:22.641Z,72.41
2018-11-14T16:14:51.624Z,72.34
2018-11-14T16:17:19.717Z,72.03
2018-11-14T16:19:47.781Z,72.22
2018-11-14T16:22:15.943Z,71.96
2018-11-14T16:24:44.042Z,72.06
2018-11-14T16:27:12.233Z,72.20
2018-11-14T16:29:40.318Z,71.66
2018-11-14T16:32:08.359Z,72.12
2018-11-14T16:34:36.942Z,72.05
2018-11-14T16:37:05.038Z,71.88
2018-11-14T16:39:33.070Z,72.08
2018-11-14T16:42:01.483Z,72.18
2018-11-14T16:44:29.607Z,72.21
2018-11-14T16:46:57.615Z,72.14
2018-11-14T16:49:25.706Z,72.18
2018-11-14T16:51:53.784Z,72.36
2018-11-14T16:54:21.865Z,72.31
2018-11-14T16:56:49.944Z,72.34
2018-11-14T16:59:18.943Z,72.10
2018-11-14T17:01:47.495Z,72.15
2018-11-14T17:04:15.541Z,72.24
2018-11-14T17:06:43.636Z,72.08
2018-11-14T17:09:12.693Z,72.06
2018-11-14T17:11:40.921Z,71.92
2018-11-14T17:14:09.108Z,71.91
2018-11-14T17:16:37.933Z,72.03
2018-11-14T17:19:06.041Z,71.93
2018-11-14T17:21:34.804Z,71.74
2018-11-14T17:24:03.169Z,72.26
2018-11-14T17:26:31.254Z,72.26
2018-11-14T17:28:59.352Z,71.94
2018-11-14T17:31:27.403Z,72.11
2018-11-14T17:33:55.462Z,72.30
2018-11-14T17:36:23.505Z,72.29
2018-11-14T17:38:51.661Z,72.33
2018-11-14T17:41:19.863Z,72.32
2018-11-14T17:43:47.950Z,72.35
2018-11-14T17:46:16.122Z,72.25
2018-11-14T17:48:44.665Z,72.15
2018-11-14T17:51:21.030Z,72.26
2018-11-14T17:53:49.024Z,72.33
2018-11-14T17:56:16.892Z,72.33
2018-11-14T17:58:44.764Z,72.33
2018-11-14T18:01:12.745Z,72.25
2018-11-14T18:03:40.896Z,72.37
2018-11-14T18:06:08.918Z,72.22
2018-11-14T18:08:36.959Z,72.25
2018-11-14T18:11:05.407Z,72.33
2018-11-14T18:13:33.224Z,72.19
2018-11-14T18:16:01.658Z,72.24
2018-11-14T18:18:29.545Z,72.32
2018-11-14T18:20:57.410Z,72.52
2018-11-14T18:23:25.369Z,72.43
2018-11-14T18:25:53.460Z,72.39
2018-11-14T18:28:22.095Z,72.60
2018-11-14T18:30:50.592Z,72.42
2018-11-14T18:33:18.621Z,72.16
2018-11-14T18:35:46.561Z,72.48
2018-11-14T18:38:14.465Z,72.27
2018-11-14T18:40:42.331Z,72.32
2018-11-14T18:43:10.197Z,72.09
2018-11-14T18:45:38.049Z,72.11
2018-11-14T18:48:06.566Z,72.09
2018-11-14T18:50:34.428Z,72.06
2018-11-14T18:53:02.286Z,72.34
2018-11-14T18:55:33.179Z,72.25
2018-11-14T18:58:01.896Z,72.54
2018-11-14T19:00:31.425Z,72.53
2018-11-14T19:02:59.450Z,72.74
2018-11-14T19:05:27.579Z,72.43
2018-11-14T19:07:55.528Z,72.76
2018-11-14T19:10:28.925Z,72.69
2018-11-14T19:12:56.898Z,72.88
2018-11-14T19:15:26.171Z,72.71
2018-11-14T19:17:54.203Z,72.98
2018-11-14T19:20:24.543Z,73.15
2018-11-14T19:22:52.960Z,73.14
2018-11-14T19:25:33.246Z,73.21
2018-11-14T19:28:01.203Z,73.22
2018-11-14T19:30:30.415Z,73.07
2018-11-14T19:32:59.089Z,73.31
2018-11-14T19:35:26.993Z,73.17
2018-11-14T19:37:55.651Z,73.18
2018-11-14T19:40:24.974Z,73.12
2018-11-14T19:42:54.490Z,73.40
2018-11-14T19:45:23.845Z,73.36
2018-11-14T19:47:51.677Z,73.51
2018-11-14T19:50:20.555Z,73.47
2018-11-14T19:52:48.774Z,73.56
2018-11-14T19:55:18.013Z,73.81
2018-11-14T19:57:46.778Z,73.92
2018-11-14T20:00:18.957Z,73.64
2018-11-14T20:02:47.123Z,73.96
2018-11-14T20:05:15.789Z,73.96
2018-11-14T20:07:43.578Z,73.86
2018-11-14T20:10:13.534Z,73.96
2018-11-14T20:12:41.564Z,73.87
2018-11-14T20:15:11.687Z,73.79
2018-11-14T20:17:40.453Z,73.85
2018-11-14T20:20:10.826Z,73.96
2018-11-14T20:22:38.682Z,73.93
2018-11-14T20:25:06.845Z,74.25
2018-11-14T20:27:37.835Z,73.99
2018-11-14T20:30:11.757Z,73.84
2018-11-14T20:32:39.949Z,73.77
2018-11-14T20:35:09.355Z,73.93
2018-11-14T20:37:37.450Z,73.70
2018-11-14T20:40:06.911Z,73.55
2018-11-14T20:42:35.156Z,73.53
2018-11-14T20:45:03.297Z,73.54
2018-11-14T20:47:31.475Z,73.26
2018-11-14T20:49:59.830Z,73.01
2018-11-14T20:52:27.685Z,73.23
2018-11-14T20:54:55.582Z,73.38
2018-11-14T20:57:24.360Z,73.19
2018-11-14T20:59:52.352Z,73.47
2018-11-14T21:02:20.257Z,73.25
2018-11-14T21:04:48.173Z,73.00
2018-11-14T21:07:16.040Z,73.07
2018-11-14T21:09:43.939Z,73.11
2018-11-14T21:12:11.845Z,73.25
2018-11-14T21:14:39.851Z,73.02
2018-11-14T21:17:07.786Z,73.23
2018-11-14T21:19:35.591Z,73.28
2018-11-14T21:22:03.520Z,73.26
2018-11-14T21:24:31.610Z,73.18
2018-11-14T21:26:59.434Z,73.32
2018-11-14T21:29:27.342Z,73.26
2018-11-14T21:31:55.276Z,73.51
2018-11-14T21:34:23.203Z,73.71
2018-11-14T21:36:51.119Z,73.84
2018-11-14T21:39:19.020Z,73.64
2018-11-14T21:41:47.011Z,73.57
2018-11-14T21:44:14.890Z,73.50
2018-11-14T21:46:42.844Z,73.46
2018-11-14T21:49:16.297Z,73.32
2018-11-14T21:51:44.212Z,72.95
2018-11-14T21:54:12.082Z,72.88
2018-11-14T21:56:58.044Z,72.76
2018-11-14T21:59:26.513Z,72.84
2018-11-14T22:01:54.413Z,72.58
2018-11-14T22:04:22.204Z,72.54
2018-11-14T22:06:50.038Z,72.37
2018-11-14T22:09:18.505Z,72.55
2018-11-14T22:11:46.365Z,72.43
2018-11-14T22:14:14.216Z,72.40
2018-11-14T22:16:42.064Z,72.36
2018-11-14T22:19:09.898Z,72.63
2018-11-14T22:21:37.748Z,72.59
2018-11-14T22:24:05.664Z,72.49
2018-11-14T22:26:33.533Z,72.55
2018-11-14T22:29:01.610Z,72.70
2018-11-14T22:31:29.649Z,72.61
2018-11-14T22:33:57.521Z,72.76
2018-11-14T22:36:25.413Z,72.92
2018-11-14T22:38:53.304Z,72.73
2018-11-14T22:41:21.147Z,72.85
2018-11-14T22:43:49.018Z,72.79
2018-11-14T22:46:16.864Z,72.95
2018-11-14T22:48:44.670Z,72.96
2018-11-14T22:51:12.586Z,72.70
2018-11-14T22:53:40.436Z,72.62
2018-11-14T22:56:08.320Z,72.44
2018-11-14T22:58:36.145Z,72.33
2018-11-14T23:01:04.728Z,72.24
2018-11-14T23:03:32.546Z,72.23
2018-11-14T23:06:00.402Z,72.45
2018-11-14T23:08:28.364Z,72.59
2018-11-14T23:10:56.336Z,72.66
2018-11-14T23:13:24.214Z,72.87
2018-11-14T23:15:52.082Z,72.66
2018-11-14T23:18:20.030Z,72.72
2018-11-14T23:20:48.011Z,72.47
2018-11-14T23:23:16.025Z,72.51
2018-11-14T23:25:43.874Z,72.59
2018-11-14T23:28:11.782Z,72.30
2018-11-14T23:30:39.691Z,72.16
2018-11-14T23:33:07.546Z,72.34
2018-11-14T23:35:35.501Z,72.51
2018-11-14T23:38:04.625Z,72.73
2018-11-14T23:40:32.598Z,72.53
2018-11-14T23:43:00.897Z,72.93
2018-11-14T23:45:29.556Z,72.87
2018-11-14T23:47:57.383Z,72.76
2018-11-14T23:50:27.358Z,72.57
2018-11-14T23:52:56.236Z,72.76
2018-11-14T23:55:24.921Z,72.10
2018-11-14T23:57:52.914Z,72.17
